La Belle, Florida
Current Conditions -  °F | °C
As of 11:15 AM on Thursday 23 Oct 2014 (Local Time) from KIMM Reporting Station
Few Clouds Few Clouds  
Wind Chill: 81°   Ceiling: Unl
Heat Index: 85°   Visibility: 7mi
Dew Point: 73°   Wind: 10mph
Humidity: 79%   Direction: 60°ENE
Pressure: 29.97"   Gusts: NA
Location:  26.76°N, 81.44°W
Report Text: KIMM 231515Z AUTO 06009KT 7SM FEW020 27/23 A2997 RMK A01 P000
Loading
Personal Weather Stations






























Interactive Weather Map
Tropical Storm Tracking
New forecast layout! Learn more

10-Day Weather Forecast

Advertisements
Track Severe Weather on mobile